Time;durP1;ratioP1;P1;durP2;ratioP2;P2;SDS_P1;SDS_P2;PMS_P1;PMS_P2;Temp;Humidity;BMP_temperature;BMP_pressure;BME280_temperature;BME280_humidity;BME280_pressure;Samples;Min_cycle;Max_cycle;Signal;HPM_P1;HPM_P2
2021/03/03 00:02:19;;;;;;;16.25;8.58;;;;;;;3.41;59.91;98180.08;1782775;80;21178;-82
2021/03/03 00:04:46;;;;;;;18.15;8.60;;;;;;;3.46;59.91;98183.72;1772344;80;21127;-82
2021/03/03 00:07:17;;;;;;;17.25;7.83;;;;;;;3.41;59.85;98175.64;1793576;79;21103;-82
2021/03/03 00:09:44;;;;;;;17.87;8.43;;;;;;;3.32;59.91;98179.41;1783653;80;21168;-82
2021/03/03 00:12:11;;;;;;;16.10;7.30;;;;;;;3.25;59.99;98176.77;1785524;79;21134;-82
2021/03/03 00:14:38;;;;;;;14.47;7.28;;;;;;;3.20;60.36;98171.27;1797591;77;21072;-82
2021/03/03 00:17:05;;;;;;;15.55;8.08;;;;;;;3.17;61.40;98172.97;1777495;80;21113;-82
2021/03/03 00:19:32;;;;;;;14.68;7.47;;;;;;;3.29;61.57;98169.31;1778797;79;21119;-82
2021/03/03 00:21:59;;;;;;;14.83;7.40;;;;;;;3.32;61.62;98172.86;1783494;79;21130;-83
2021/03/03 00:24:26;;;;;;;15.50;8.08;;;;;;;3.32;61.56;98170.73;1781278;79;21104;-82
2021/03/03 00:26:53;;;;;;;15.88;7.95;;;;;;;3.23;61.69;98172.19;1792489;79;21121;-82
2021/03/03 00:29:20;;;;;;;15.85;8.38;;;;;;;3.13;62.30;98168.31;1792331;79;21148;-82
2021/03/03 00:31:47;;;;;;;14.43;7.60;;;;;;;3.05;62.05;98165.84;1778215;80;21183;-82
2021/03/03 00:34:14;;;;;;;15.68;7.50;;;;;;;3.04;62.33;98162.91;1773891;79;21109;-83
2021/03/03 00:36:41;;;;;;;17.37;8.90;;;;;;;3.00;62.34;98165.11;1782275;79;21138;-83
2021/03/03 00:39:08;;;;;;;13.35;7.45;;;;;;;3.07;62.11;98165.95;1776953;79;21163;-82
2021/03/03 00:41:35;;;;;;;17.02;7.50;;;;;;;3.11;62.24;98163.27;1768792;79;21120;-82
2021/03/03 00:44:02;;;;;;;18.35;8.65;;;;;;;3.19;62.20;98160.98;1776706;79;21123;-82
2021/03/03 00:46:29;;;;;;;12.95;7.08;;;;;;;3.22;62.38;98151.42;1779677;80;22245;-82
2021/03/03 00:48:56;;;;;;;11.55;6.58;;;;;;;3.16;62.96;98162.69;1784043;79;21470;-82
2021/03/03 00:51:23;;;;;;;14.03;6.83;;;;;;;3.14;62.70;98164.20;1776810;79;21162;-82
2021/03/03 00:53:50;;;;;;;16.60;7.53;;;;;;;3.20;62.69;98159.98;1765970;80;21162;-82
2021/03/03 00:56:17;;;;;;;15.68;8.35;;;;;;;3.15;62.83;98158.45;1775186;79;21100;-82
2021/03/03 00:58:44;;;;;;;17.62;9.68;;;;;;;2.88;62.95;98153.03;1784262;79;21131;-82
2021/03/03 01:01:11;;;;;;;19.60;8.48;;;;;;;2.70;63.11;98155.83;1812086;77;21170;-82
2021/03/03 01:03:38;;;;;;;19.30;11.35;;;;;;;2.67;63.54;98156.52;1788697;79;21138;-82
2021/03/03 01:06:05;;;;;;;19.90;11.33;;;;;;;2.67;63.77;98155.21;1768335;80;21492;-82
2021/03/03 01:08:32;;;;;;;23.50;12.30;;;;;;;2.67;63.58;98155.21;1761991;80;21155;-82
2021/03/03 01:10:59;;;;;;;19.98;11.83;;;;;;;2.61;63.39;98149.91;1787273;79;21140;-82
2021/03/03 01:13:26;;;;;;;19.52;10.50;;;;;;;2.58;63.40;98149.80;1784115;79;21099;-82
2021/03/03 01:15:53;;;;;;;21.45;10.95;;;;;;;2.52;63.28;98149.22;1778283;79;21179;-83
2021/03/03 01:18:20;;;;;;;19.40;10.98;;;;;;;2.50;63.24;98147.30;1791834;80;21104;-82
2021/03/03 01:20:48;;;;;;;25.08;12.35;;;;;;;2.46;63.24;98143.95;1797671;78;21122;-82
2021/03/03 01:23:15;;;;;;;19.48;11.60;;;;;;;2.42;63.18;98136.98;1772337;79;21121;-82
2021/03/03 01:25:42;;;;;;;22.00;10.75;;;;;;;2.42;63.16;98142.71;1780567;79;21131;-82
2021/03/03 01:28:09;;;;;;;19.67;10.50;;;;;;;2.42;63.24;98137.48;1801618;78;21125;-82
2021/03/03 01:30:37;;;;;;;16.23;8.63;;;;;;;2.38;63.16;98136.52;1793827;79;21614;-82
2021/03/03 01:33:06;;;;;;;15.23;8.58;;;;;;;2.36;63.25;98133.29;1772762;80;21072;-82
2021/03/03 01:35:33;;;;;;;14.28;7.78;;;;;;;2.34;63.28;98134.48;1768561;80;21514;-82
2021/03/03 01:38:00;;;;;;;16.87;7.30;;;;;;;2.31;63.40;98135.67;1787631;79;21157;-82
2021/03/03 01:40:27;;;;;;;14.10;7.62;;;;;;;2.30;63.50;98135.86;1782251;80;21123;-82
2021/03/03 01:42:55;;;;;;;12.95;7.22;;;;;;;2.24;63.75;98134.78;1790452;80;21444;-82
2021/03/03 01:45:22;;;;;;;12.50;6.58;;;;;;;2.15;64.32;98132.50;1805623;78;21548;-82
2021/03/03 01:47:49;;;;;;;11.97;6.90;;;;;;;2.07;65.47;98132.11;1792298;79;22239;-82
2021/03/03 01:50:16;;;;;;;12.63;6.30;;;;;;;2.07;65.67;98127.69;1786889;80;21115;-82
2021/03/03 01:52:44;;;;;;;14.93;7.50;;;;;;;1.98;65.98;98130.62;1778542;80;21131;-82
2021/03/03 01:55:13;;;;;;;14.80;8.10;;;;;;;1.98;66.20;98134.55;1790688;80;21142;-82
2021/03/03 01:57:40;;;;;;;19.20;9.43;;;;;;;2.00;65.98;98126.83;1778534;80;21490;-82
2021/03/03 02:00:09;;;;;;;11.38;7.03;;;;;;;2.02;65.57;98126.64;1788875;79;21157;-82
2021/03/03 02:02:36;;;;;;;14.50;6.95;;;;;;;2.03;66.55;98121.72;1780948;80;21119;-82
2021/03/03 02:05:06;;;;;;;16.48;7.72;;;;;;;2.07;66.54;98119.03;1821954;78;21605;-82
2021/03/03 02:07:47;;;;;;;13.60;7.50;;;;;;;2.13;66.88;98122.73;1799484;79;21110;-82
2021/03/03 02:10:39;;;;;;;15.88;7.58;;;;;;;2.12;66.64;98117.19;1803085;78;21419;-82
2021/03/03 02:13:28;;;;;;;14.13;7.42;;;;;;;2.13;66.41;98116.19;1770339;79;21142;-82
2021/03/03 02:15:59;;;;;;;14.80;7.90;;;;;;;2.16;66.27;98110.08;1787372;79;21249;-83
2021/03/03 02:18:28;;;;;;;14.05;8.08;;;;;;;2.15;66.04;98111.58;1773698;80;21137;-83
2021/03/03 02:21:18;;;;;;;10.70;5.87;;;;;;;2.17;65.82;98110.88;1796518;78;21521;-83
2021/03/03 02:24:13;;;;;;;13.98;8.23;;;;;;;2.17;65.87;98109.08;1760195;80;21467;-83
2021/03/03 02:26:43;;;;;;;13.88;8.65;;;;;;;2.12;65.68;98100.99;1793198;79;21268;-83
2021/03/03 02:29:16;;;;;;;16.87;9.28;;;;;;;2.14;65.73;98098.99;1791676;79;21666;-83
2021/03/03 02:31:46;;;;;;;14.75;7.58;;;;;;;2.12;65.68;98095.76;1791084;78;21147;-83
2021/03/03 02:34:15;;;;;;;15.90;8.18;;;;;;;2.07;66.14;98089.77;1789355;78;21459;-83
2021/03/03 02:36:44;;;;;;;12.10;7.37;;;;;;;2.07;66.15;98092.88;1809422;78;21103;-82
2021/03/03 02:39:12;;;;;;;13.93;7.05;;;;;;;2.09;66.57;98092.19;1807119;78;21143;-82
2021/03/03 02:41:42;;;;;;;12.00;6.60;;;;;;;2.09;66.92;98088.27;1801996;79;21138;-83
2021/03/03 02:44:12;;;;;;;17.12;8.20;;;;;;;2.08;67.11;98085.34;1755088;79;21453;-83
2021/03/03 02:46:43;;;;;;;17.92;9.60;;;;;;;2.07;66.71;98085.84;1767060;80;21601;-83
2021/03/03 02:49:12;;;;;;;15.30;7.85;;;;;;;2.02;66.32;98082.17;1798823;79;21285;-83
2021/03/03 02:51:39;;;;;;;14.28;7.85;;;;;;;2.01;66.27;98082.67;1783449;79;21122;-83
2021/03/03 02:54:13;;;;;;;10.85;6.87;;;;;;;1.91;67.10;98081.36;1786472;79;21544;-83
2021/03/03 02:56:40;;;;;;;14.63;7.70;;;;;;;1.88;67.50;98075.20;1787584;79;21525;-83
2021/03/03 02:59:21;;;;;;;14.35;7.12;;;;;;;1.94;67.17;98079.17;1772759;79;21138;-83
2021/03/03 03:01:51;;;;;;;17.85;7.87;;;;;;;1.97;67.18;98075.38;1770586;79;21177;-83
2021/03/03 03:04:21;;;;;;;14.25;7.60;;;;;;;1.97;66.78;98074.91;1775255;79;21435;-82
2021/03/03 03:06:49;;;;;;;16.10;7.55;;;;;;;1.89;67.02;98077.63;1781041;78;21469;-82
2021/03/03 03:09:19;;;;;;;17.75;8.58;;;;;;;1.76;67.29;98086.15;1783602;80;21204;-82
2021/03/03 03:11:53;;;;;;;13.98;6.97;;;;;;;1.74;67.16;98085.53;1787129;80;21119;-83
2021/03/03 03:14:24;;;;;;;14.83;7.80;;;;;;;1.69;67.74;98087.90;1801562;79;21100;-83
2021/03/03 03:16:57;;;;;;;15.48;7.95;;;;;;;1.68;67.61;98084.13;1786136;80;21284;-83
2021/03/03 03:19:32;;;;;;;12.68;7.30;;;;;;;1.73;67.67;98083.10;1781821;79;21580;-83
2021/03/03 03:22:01;;;;;;;13.95;6.72;;;;;;;1.73;68.26;98078.69;1768459;80;21499;-82
2021/03/03 03:24:30;;;;;;;17.52;8.05;;;;;;;1.67;68.59;98074.67;1764016;80;21114;-83
2021/03/03 03:26:58;;;;;;;12.55;6.33;;;;;;;1.68;68.42;98075.80;1776734;80;21125;-83
2021/03/03 03:29:27;;;;;;;17.40;8.98;;;;;;;1.70;68.10;98078.25;1773707;80;21174;-83
2021/03/03 03:31:56;;;;;;;16.57;8.30;;;;;;;1.71;67.83;98072.03;1748480;80;21191;-83
2021/03/03 03:34:23;;;;;;;14.35;7.60;;;;;;;1.71;67.70;98070.22;1795750;79;21080;-83
2021/03/03 03:36:52;;;;;;;12.85;7.42;;;;;;;1.71;67.53;98068.11;1765136;80;21116;-83
2021/03/03 03:39:19;;;;;;;14.55;8.73;;;;;;;1.67;67.70;98070.76;1784289;80;21494;-83
2021/03/03 03:41:47;;;;;;;13.18;6.85;;;;;;;1.63;67.63;98073.44;1778837;79;21191;-82
2021/03/03 03:44:15;;;;;;;13.48;8.43;;;;;;;1.62;67.73;98066.59;1780644;80;21131;-83
2021/03/03 03:46:43;;;;;;;15.28;8.63;;;;;;;1.55;67.36;98066.53;1767126;79;21069;-83
2021/03/03 03:49:11;;;;;;;15.15;7.92;;;;;;;1.51;67.32;98069.68;1780220;79;21084;-83
2021/03/03 03:51:42;;;;;;;15.35;7.03;;;;;;;1.48;67.49;98064.33;1763993;80;21161;-83
2021/03/03 03:54:11;;;;;;;15.48;8.38;;;;;;;1.50;67.51;98059.73;1770744;80;21127;-82
2021/03/03 03:56:40;;;;;;;16.70;8.10;;;;;;;1.55;67.58;98055.24;1760696;80;21139;-82
2021/03/03 03:59:07;;;;;;;16.42;8.43;;;;;;;1.59;67.41;98053.91;1763063;80;21484;-83
2021/03/03 04:01:34;;;;;;;13.32;6.87;;;;;;;1.60;67.40;98052.41;1767651;80;21144;-83
2021/03/03 04:04:02;;;;;;;16.10;7.92;;;;;;;1.63;67.20;98052.03;1782861;79;21138;-83
2021/03/03 04:06:29;;;;;;;15.88;7.92;;;;;;;1.66;67.12;98053.45;1775837;79;21492;-83
2021/03/03 04:08:56;;;;;;;14.38;8.03;;;;;;;1.69;67.01;98053.08;1766039;80;21176;-82
2021/03/03 04:11:23;;;;;;;14.20;7.58;;;;;;;1.70;66.90;98052.92;1774886;79;21128;-82
2021/03/03 04:13:51;;;;;;;11.93;6.42;;;;;;;1.74;66.83;98051.55;1775912;79;21139;-82
2021/03/03 04:16:18;;;;;;;13.68;7.22;;;;;;;1.75;66.69;98049.23;1775585;80;21120;-83
2021/03/03 04:18:45;;;;;;;11.70;6.20;;;;;;;1.77;66.66;98049.86;1792396;80;21143;-83
2021/03/03 04:21:12;;;;;;;15.15;7.65;;;;;;;1.82;66.61;98047.17;1783681;80;21134;-83
2021/03/03 04:23:39;;;;;;;16.30;8.05;;;;;;;1.88;66.63;98043.83;1760095;80;21104;-83
2021/03/03 04:26:06;;;;;;;16.10;7.92;;;;;;;1.90;66.37;98040.52;1783615;79;21156;-83
2021/03/03 04:28:33;;;;;;;12.43;7.25;;;;;;;1.88;66.36;98034.67;1768525;80;21123;-82
2021/03/03 04:31:00;;;;;;;15.03;8.23;;;;;;;1.88;66.31;98038.59;1768836;79;21116;-82
2021/03/03 04:33:27;;;;;;;14.65;7.90;;;;;;;1.88;66.42;98033.36;1777909;80;21138;-82
2021/03/03 04:35:54;;;;;;;12.95;7.05;;;;;;;1.86;66.20;98034.05;1788906;79;21120;-83
2021/03/03 04:38:22;;;;;;;13.72;7.60;;;;;;;1.85;66.38;98034.55;1773270;80;21092;-82
2021/03/03 04:40:49;;;;;;;14.90;7.42;;;;;;;1.97;66.30;98028.30;1774032;80;21498;-82
2021/03/03 04:43:17;;;;;;;15.25;7.45;;;;;;;1.97;66.05;98030.44;1774327;80;21150;-82
2021/03/03 04:45:44;;;;;;;15.03;7.80;;;;;;;1.94;66.01;98029.98;1765866;80;21165;-82
2021/03/03 04:48:11;;;;;;;14.20;8.20;;;;;;;1.94;66.01;98029.98;1773989;79;21119;-82
2021/03/03 04:50:40;;;;;;;15.43;7.78;;;;;;;1.93;65.96;98024.45;1763559;80;21128;-82
2021/03/03 04:53:07;;;;;;;13.98;7.08;;;;;;;1.89;65.82;98024.52;1777353;80;21109;-83
2021/03/03 04:55:34;;;;;;;15.85;7.45;;;;;;;1.82;65.79;98023.64;1790309;80;21159;-82
2021/03/03 04:58:02;;;;;;;13.18;6.97;;;;;;;1.82;65.96;98023.14;1791097;79;21140;-82
2021/03/03 05:00:29;;;;;;;13.80;7.03;;;;;;;1.83;65.99;98020.02;1785824;80;21175;-83
2021/03/03 05:02:56;;;;;;;15.08;6.97;;;;;;;1.83;66.00;98018.25;1773687;80;21155;-82
2021/03/03 05:05:23;;;;;;;12.45;6.47;;;;;;;1.84;66.04;98015.14;1775978;79;21152;-82
2021/03/03 05:07:51;;;;;;;15.28;7.65;;;;;;;1.84;66.04;98015.14;1773646;80;21095;-83
2021/03/03 05:10:18;;;;;;;11.75;6.83;;;;;;;1.84;66.05;98013.83;1783110;79;21491;-82
2021/03/03 05:12:45;;;;;;;12.80;6.45;;;;;;;1.93;66.24;98010.06;1778943;79;21103;-83
2021/03/03 05:15:13;;;;;;;12.45;7.00;;;;;;;2.13;66.40;98014.97;1778510;80;21385;-82
2021/03/03 05:17:40;;;;;;;10.78;5.45;;;;;;;2.52;66.25;98009.68;1780783;79;21131;-82
2021/03/03 05:20:09;;;;;;;11.83;6.25;;;;;;;2.78;65.52;97999.36;1780805;79;21152;-82
2021/03/03 05:22:36;;;;;;;10.13;5.72;;;;;;;2.95;65.27;98006.38;1782947;79;21087;-82
2021/03/03 05:25:06;;;;;;;12.15;6.70;;;;;;;3.07;64.56;97997.46;1788297;80;21106;-82
2021/03/03 05:27:33;;;;;;;9.80;5.97;;;;;;;3.20;64.48;97998.31;1797965;79;21554;-82
2021/03/03 05:30:00;;;;;;;12.03;6.05;;;;;;;3.26;64.19;97999.36;1774271;80;21111;-83
2021/03/03 05:32:27;;;;;;;6.47;4.20;;;;;;;3.37;63.88;97998.77;1784741;80;21327;-82
2021/03/03 05:34:54;;;;;;;10.25;5.58;;;;;;;3.54;63.32;97994.79;1774508;80;21118;-82
2021/03/03 05:37:21;;;;;;;10.45;5.50;;;;;;;3.92;63.46;97990.77;1789647;80;21115;-82
2021/03/03 05:39:48;;;;;;;12.25;6.60;;;;;;;4.43;62.94;97989.13;1776257;79;21138;-82
2021/03/03 05:42:15;;;;;;;10.15;5.15;;;;;;;4.95;61.10;97989.20;1783117;79;21153;-83
2021/03/03 05:44:46;;;;;;;10.00;6.03;;;;;;;5.47;59.65;97984.17;1780932;80;21103;-83
2021/03/03 05:47:15;;;;;;;8.50;4.58;;;;;;;6.03;58.96;97982.09;1779166;80;21120;-83
2021/03/03 05:49:45;;;;;;;9.70;5.10;;;;;;;6.50;56.28;97981.98;1773164;80;21209;-83
2021/03/03 05:52:15;;;;;;;8.38;5.35;;;;;;;6.94;55.56;97977.45;1785694;79;21115;-83
2021/03/03 05:54:43;;;;;;;9.28;5.47;;;;;;;7.33;53.18;97972.71;1781170;80;21454;-83
2021/03/03 05:57:10;;;;;;;8.58;4.05;;;;;;;7.57;52.10;97970.94;1778255;79;21138;-81
2021/03/03 05:59:37;;;;;;;10.50;5.10;;;;;;;7.85;50.74;97965.03;1782727;79;21127;-81
2021/03/03 06:02:06;;;;;;;9.38;5.05;;;;;;;8.10;50.29;97975.41;1786823;79;21116;-81
2021/03/03 06:04:33;;;;;;;9.05;5.15;;;;;;;8.53;49.74;97971.13;1787444;79;21107;-81
2021/03/03 06:07:01;;;;;;;9.13;5.08;;;;;;;8.79;48.16;97970.64;1775550;79;21083;-81
2021/03/03 06:09:28;;;;;;;9.35;5.30;;;;;;;9.19;48.84;97977.27;1790087;79;21147;-81
2021/03/03 06:11:57;;;;;;;8.00;4.65;;;;;;;9.66;47.89;97972.28;1782215;80;21531;-81
2021/03/03 06:14:24;;;;;;;9.83;5.47;;;;;;;10.08;46.28;97977.50;1771973;80;21497;-81
2021/03/03 06:16:55;;;;;;;9.63;5.83;;;;;;;10.21;46.84;97977.73;1781876;80;21118;-81
2021/03/03 06:19:22;;;;;;;9.75;5.28;;;;;;;10.57;46.13;97979.59;1783061;79;21128;-82
2021/03/03 06:21:49;;;;;;;10.43;5.50;;;;;;;10.92;45.20;97980.56;1777743;80;21541;-82
2021/03/03 06:24:16;;;;;;;10.28;5.50;;;;;;;11.06;43.60;97983.13;1791952;79;21624;-81
2021/03/03 06:26:59;;;;;;;11.43;6.42;;;;;;;11.20;43.66;97975.06;1764541;80;21092;-82
2021/03/03 06:29:26;;;;;;;10.15;6.72;;;;;;;11.41;43.55;97967.34;1783254;80;21487;-83
2021/03/03 06:31:53;;;;;;;9.85;6.35;;;;;;;11.24;41.34;97970.86;1777960;80;21486;-83
2021/03/03 06:34:26;;;;;;;12.13;6.90;;;;;;;11.18;42.56;97981.16;1791255;79;21303;-83
2021/03/03 06:37:03;;;;;;;9.73;6.20;;;;;;;11.17;42.63;97970.79;1791096;79;21144;-83
2021/03/03 06:39:38;;;;;;;10.43;5.60;;;;;;;11.70;43.25;97976.66;1791837;79;21268;-83
2021/03/03 06:42:09;;;;;;;7.60;4.78;;;;;;;12.35;41.94;97985.45;1787974;79;21257;-82
2021/03/03 06:44:49;;;;;;;9.70;5.65;;;;;;;12.90;40.77;97974.33;1782925;79;21122;-83
2021/03/03 06:47:18;;;;;;;10.78;6.22;;;;;;;13.07;39.80;97984.77;1800715;78;21123;-83
2021/03/03 06:49:48;;;;;;;9.83;5.83;;;;;;;13.40;39.92;97974.81;1781786;79;21156;-83
2021/03/03 06:52:15;;;;;;;9.20;5.80;;;;;;;13.66;38.85;97970.62;1776351;80;21151;-83
2021/03/03 06:54:42;;;;;;;7.65;4.72;;;;;;;13.54;37.90;97970.59;1809924;79;21134;-83
2021/03/03 06:57:13;;;;;;;10.18;5.67;;;;;;;13.50;37.65;97968.96;1777625;79;21126;-83
2021/03/03 06:59:45;;;;;;;7.30;4.83;;;;;;;13.26;38.10;97972.65;1783469;79;21146;-83
2021/03/03 07:02:15;;;;;;;9.18;5.58;;;;;;;13.51;37.45;97969.26;1788443;80;21118;-83
2021/03/03 07:04:44;;;;;;;8.63;5.55;;;;;;;13.98;36.65;97968.23;1755453;80;21142;-83
2021/03/03 07:07:18;;;;;;;7.90;5.08;;;;;;;14.08;38.07;97961.58;1800717;79;21601;-83
2021/03/03 07:09:53;;;;;;;8.10;5.03;;;;;;;14.59;36.67;97966.06;1782697;80;21162;-83
2021/03/03 07:12:26;;;;;;;8.63;5.85;;;;;;;14.91;35.67;97959.02;1780045;80;21111;-82
2021/03/03 07:15:04;;;;;;;8.65;5.67;;;;;;;15.09;36.13;97970.45;1784767;79;21122;-82
2021/03/03 07:17:38;;;;;;;10.58;5.53;;;;;;;15.62;36.50;97967.55;1791690;80;21182;-83
2021/03/03 07:20:14;;;;;;;8.73;5.47;;;;;;;15.70;35.22;97959.45;1778549;80;21148;-83
2021/03/03 07:22:48;;;;;;;8.75;5.50;;;;;;;15.94;35.21;97958.22;1786773;79;21116;-82
2021/03/03 07:25:20;;;;;;;7.90;5.55;;;;;;;16.16;33.63;97961.77;1780278;80;21150;-83
2021/03/03 07:27:49;;;;;;;6.65;4.65;;;;;;;16.31;33.52;97961.64;1784231;80;21120;-83
2021/03/03 07:30:24;;;;;;;7.95;5.30;;;;;;;16.18;33.69;97967.64;1785579;79;21119;-82
2021/03/03 07:32:53;;;;;;;8.43;5.35;;;;;;;16.42;32.85;97958.33;1781156;80;21478;-83
2021/03/03 07:35:20;;;;;;;8.38;5.80;;;;;;;16.81;33.37;97952.88;1780374;80;21115;-83
2021/03/03 07:37:55;;;;;;;7.72;5.67;;;;;;;17.32;33.45;97953.59;1792068;79;21106;-83
2021/03/03 07:40:26;;;;;;;7.40;5.10;;;;;;;17.45;31.92;97953.68;1784329;79;21151;-83
2021/03/03 07:42:56;;;;;;;10.25;5.78;;;;;;;17.42;31.39;97956.12;1776485;80;21123;-83
2021/03/03 07:45:37;;;;;;;7.90;5.37;;;;;;;17.44;31.75;97943.22;1784404;80;21151;-82
2021/03/03 07:48:08;;;;;;;8.50;5.70;;;;;;;17.62;32.23;97943.78;1773576;80;21135;-83
2021/03/03 07:50:36;;;;;;;8.60;5.80;;;;;;;17.97;31.70;97946.47;1791250;79;21115;-83
2021/03/03 07:53:04;;;;;;;7.90;5.25;;;;;;;18.42;30.68;97944.64;1789039;79;21132;-83
2021/03/03 07:55:33;;;;;;;8.78;6.10;;;;;;;18.59;31.02;97948.92;1779159;80;21120;-83
2021/03/03 07:58:04;;;;;;;7.78;5.45;;;;;;;19.14;31.52;97941.68;1786345;79;21578;-83
2021/03/03 08:00:34;;;;;;;8.80;5.67;;;;;;;19.61;30.79;97944.98;1766813;80;21124;-83
2021/03/03 08:03:02;;;;;;;8.50;5.60;;;;;;;19.62;29.34;97948.47;1798650;79;21133;-83
2021/03/03 08:05:34;;;;;;;8.88;5.97;;;;;;;19.54;28.92;97945.91;1767077;79;22070;-84
2021/03/03 08:08:23;;;;;;;9.28;5.97;;;;;;;19.46;30.02;97944.75;1770913;80;21140;-83
2021/03/03 08:10:47;;;;;;;8.03;5.72;;;;;;;19.61;29.41;97944.19;1759920;80;21123;-83
2021/03/03 08:13:31;;;;;;;8.60;5.97;;;;;;;19.85;28.53;97943.36;1781421;79;21080;-83
2021/03/03 08:16:02;;;;;;;12.13;8.05;;;;;;;19.66;28.97;97944.86;1807062;78;21629;-83
2021/03/03 08:18:50;;;;;;;12.70;8.03;;;;;;;20.05;28.52;97939.38;1803847;78;21127;-83
2021/03/03 08:21:22;;;;;;;13.10;7.97;;;;;;;20.02;27.90;97940.78;1777980;80;21143;-83
2021/03/03 08:23:54;;;;;;;11.83;6.65;;;;;;;19.94;27.73;97938.81;1773526;80;21455;-83
2021/03/03 08:26:29;;;;;;;11.43;7.00;;;;;;;19.64;28.52;97938.20;1775636;79;21617;-83
2021/03/03 08:29:20;;;;;;;10.88;6.05;;;;;;;19.87;28.17;97927.70;1791058;78;21273;-83
2021/03/03 08:31:48;;;;;;;8.13;5.20;;;;;;;19.96;27.87;97933.13;1775982;80;21147;-82
2021/03/03 08:34:15;;;;;;;10.43;5.97;;;;;;;19.89;27.06;97926.05;1774976;80;21140;-83
2021/03/03 08:36:50;;;;;;;8.50;5.08;;;;;;;19.67;28.37;97928.16;1757051;80;21095;-82
2021/03/03 08:39:22;;;;;;;10.43;6.17;;;;;;;19.72;27.87;97922.68;1769389;79;21101;-83
2021/03/03 08:41:49;;;;;;;11.25;6.50;;;;;;;19.79;28.61;97929.77;1760030;80;21570;-83
2021/03/03 08:44:18;;;;;;;9.08;5.80;;;;;;;19.53;27.83;97916.87;1809929;78;21095;-83
2021/03/03 08:46:49;;;;;;;9.45;5.85;;;;;;;19.26;29.16;97908.88;1797399;79;21248;-83
2021/03/03 08:49:25;;;;;;;7.72;5.25;;;;;;;19.47;29.42;97915.41;1781391;79;21158;-82
2021/03/03 08:52:09;;;;;;;9.95;5.15;;;;;;;19.44;29.00;97905.81;1770020;80;21130;-83
2021/03/03 08:54:47;;;;;;;7.85;4.62;;;;;;;19.54;29.91;97912.28;1763835;81;21137;-83
2021/03/03 08:57:37;;;;;;;8.43;5.45;;;;;;;19.60;28.70;97911.11;1774431;79;21107;-83
2021/03/03 09:00:07;;;;;;;7.80;4.65;;;;;;;19.18;28.79;97902.88;1775541;80;21433;-83
2021/03/03 09:02:40;;;;;;;9.53;4.90;;;;;;;18.74;29.52;97901.64;1768413;80;21602;-83
2021/03/03 09:05:11;;;;;;;8.43;4.90;;;;;;;18.15;29.77;97899.20;1787805;79;21111;-82
2021/03/03 09:07:38;;;;;;;7.92;4.65;;;;;;;17.16;30.16;97908.21;1795591;80;21102;-83
2021/03/03 09:10:11;;;;;;;8.38;4.87;;;;;;;16.32;30.87;97895.78;1767262;80;21138;-83
2021/03/03 09:12:42;;;;;;;7.87;3.77;;;;;;;15.79;32.50;97898.17;1801344;78;21154;-82
2021/03/03 09:15:14;;;;;;;5.95;3.60;;;;;;;15.66;31.79;97897.73;1782961;79;21088;-83
2021/03/03 09:17:43;;;;;;;7.10;4.00;;;;;;;15.45;31.83;97901.58;1781895;79;21110;-83
2021/03/03 09:20:21;;;;;;;5.97;3.37;;;;;;;15.39;32.16;97886.67;1791785;79;21272;-83
2021/03/03 09:22:48;;;;;;;9.18;4.60;;;;;;;15.22;32.51;97893.73;1765139;80;21091;-83
2021/03/03 09:25:20;;;;;;;5.17;3.45;;;;;;;15.06;33.35;97889.52;1777929;80;21166;-83
2021/03/03 09:27:58;;;;;;;7.10;3.90;;;;;;;14.96;32.71;97886.92;1790404;79;21145;-83
2021/03/03 09:30:38;;;;;;;7.15;4.08;;;;;;;14.80;32.93;97889.66;1774525;79;21071;-83
2021/03/03 09:33:08;;;;;;;4.72;3.20;;;;;;;14.59;33.89;97882.00;1783106;79;21495;-83
2021/03/03 09:35:36;;;;;;;8.83;4.12;;;;;;;14.62;32.97;97886.25;1780180;80;21289;-83
2021/03/03 09:38:04;;;;;;;5.87;3.05;;;;;;;14.63;33.72;97886.51;1784103;79;21276;-83
2021/03/03 09:40:34;;;;;;;7.40;4.00;;;;;;;14.69;32.75;97884.64;1773773;79;21515;-83
2021/03/03 09:43:03;;;;;;;5.58;3.55;;;;;;;14.61;32.74;97889.19;1782230;79;21163;-83
2021/03/03 09:45:31;;;;;;;7.00;3.75;;;;;;;14.45;32.62;97888.45;1779973;79;21464;-83
2021/03/03 09:47:59;;;;;;;6.42;3.45;;;;;;;14.25;33.60;97892.74;1794265;79;21643;-83
2021/03/03 09:50:30;;;;;;;5.72;3.72;;;;;;;14.11;34.06;97886.37;1785549;78;21129;-83
2021/03/03 09:53:00;;;;;;;5.22;3.37;;;;;;;14.17;34.77;97883.95;1772961;80;21510;-83
2021/03/03 09:55:37;;;;;;;5.12;2.67;;;;;;;14.30;33.71;97883.92;1771729;79;21462;-83
2021/03/03 09:58:05;;;;;;;4.78;2.95;;;;;;;14.38;34.00;97882.05;1779009;79;21148;-83
2021/03/03 10:00:40;;;;;;;4.37;2.65;;;;;;;14.62;34.19;97881.45;1797241;79;21358;-83
2021/03/03 10:03:13;;;;;;;5.75;2.80;;;;;;;14.85;33.62;97884.30;1803737;79;21124;-83
2021/03/03 10:05:42;;;;;;;5.28;2.40;;;;;;;14.93;33.19;97876.80;1780914;80;21157;-83
2021/03/03 10:08:13;;;;;;;3.50;2.27;;;;;;;14.98;31.61;97879.44;1785660;79;21126;-83
2021/03/03 10:10:46;;;;;;;6.42;3.37;;;;;;;15.02;32.58;97879.13;1769478;79;21135;-82
2021/03/03 10:13:22;;;;;;;6.50;3.67;;;;;;;15.25;33.19;97872.33;1789356;79;21123;-82
2021/03/03 10:15:50;;;;;;;5.95;3.30;;;;;;;15.36;32.96;97869.33;1781068;80;21127;-83
2021/03/03 10:18:18;;;;;;;5.80;3.12;;;;;;;15.49;32.40;97860.42;1785925;79;21119;-83
2021/03/03 10:20:52;;;;;;;6.37;3.65;;;;;;;15.54;31.62;97863.05;1783472;80;21102;-83
2021/03/03 10:23:23;;;;;;;6.58;3.22;;;;;;;15.50;31.68;97860.68;1766040;80;21147;-83
2021/03/03 10:26:05;;;;;;;;;;;;;;;15.55;30.82;97860.63;1791485;80;21153;-83
2021/03/03 10:28:33;;;;;;;5.80;3.22;;;;;;;15.58;31.29;97857.39;1787187;80;20111;-83
2021/03/03 10:31:04;;;;;;;6.53;3.50;;;;;;;15.40;30.20;97858.33;1792402;79;21138;-83
2021/03/03 10:33:39;;;;;;;5.92;2.98;;;;;;;15.30;31.67;97854.38;1778185;80;21103;-83
2021/03/03 10:36:17;;;;;;;6.90;2.80;;;;;;;15.54;30.94;97852.35;1784036;80;21133;-83
2021/03/03 10:38:48;;;;;;;5.95;3.40;;;;;;;15.45;30.57;97846.26;1770140;79;21119;-83
2021/03/03 10:41:31;;;;;;;6.55;3.55;;;;;;;15.28;30.93;97839.72;1773677;79;22238;-83
2021/03/03 10:43:58;;;;;;;4.83;3.15;;;;;;;15.36;31.75;97833.25;1781342;80;21110;-84
2021/03/03 10:46:28;;;;;;;5.97;3.15;;;;;;;15.62;31.04;97830.38;1774231;80;21112;-84
2021/03/03 10:49:00;;;;;;;4.85;2.95;;;;;;;15.77;31.09;97818.25;1785687;79;21195;-84
2021/03/03 10:51:41;;;;;;;5.55;3.37;;;;;;;15.68;30.53;97821.26;1870011;76;22853;-83
2021/03/03 10:54:09;;;;;;;5.50;3.17;;;;;;;15.79;31.63;97813.95;1841307;77;21530;-84
2021/03/03 10:56:41;;;;;;;3.95;2.60;;;;;;;15.89;30.77;97809.81;1836976;77;21525;-84
2021/03/03 10:59:12;;;;;;;4.97;2.67;;;;;;;15.83;29.45;97797.05;1825323;77;21319;-84
2021/03/03 11:01:48;;;;;;;6.75;3.30;;;;;;;15.64;29.99;97799.64;1815215;77;21186;-84
2021/03/03 11:04:16;;;;;;;5.70;3.37;;;;;;;15.76;31.10;97799.23;1834344;77;21083;-83
2021/03/03 11:06:43;;;;;;;5.03;2.75;;;;;;;15.96;31.71;97791.03;1840898;77;21136;-84
2021/03/03 11:09:16;;;;;;;5.60;2.90;;;;;;;16.19;30.94;97788.66;1834783;77;21147;-84
2021/03/03 11:11:56;;;;;;;5.80;2.72;;;;;;;16.03;30.72;97792.81;1815745;77;21174;-83
2021/03/03 11:14:25;;;;;;;4.12;2.40;;;;;;;15.97;30.57;97786.48;1815158;77;21102;-83
2021/03/03 11:16:53;;;;;;;5.72;2.72;;;;;;;16.10;31.07;97776.44;1802528;78;21108;-84
2021/03/03 11:19:21;;;;;;;5.28;2.98;;;;;;;16.24;30.93;97776.55;1817457;77;21454;-83
2021/03/03 11:21:51;;;;;;;4.65;2.70;;;;;;;16.28;29.68;97773.55;1828194;77;21094;-84
2021/03/03 11:24:19;;;;;;;4.97;2.77;;;;;;;16.22;30.43;97778.17;1846003;77;21111;-83
2021/03/03 11:26:48;;;;;;;5.78;3.27;;;;;;;16.36;30.63;97765.44;1820616;77;21113;-84
2021/03/03 11:29:15;;;;;;;5.72;2.83;;;;;;;16.37;29.81;97768.37;1830188;77;21118;-83
2021/03/03 11:31:45;;;;;;;5.47;3.05;;;;;;;16.39;29.51;97760.30;1819290;77;21079;-84
2021/03/03 11:34:13;;;;;;;6.53;3.05;;;;;;;16.39;29.94;97756.28;1830229;77;21091;-84
2021/03/03 11:36:41;;;;;;;7.40;4.45;;;;;;;16.52;30.60;97758.26;1831357;77;21178;-83
2021/03/03 11:39:10;;;;;;;11.33;5.92;;;;;;;16.50;30.49;97752.41;1817054;77;21462;-84
2021/03/03 11:41:38;;;;;;;9.15;5.45;;;;;;;16.44;31.38;97746.84;1828398;77;21162;-84
2021/03/03 11:44:07;;;;;;;7.70;4.72;;;;;;;16.27;31.92;97739.30;1837378;77;21582;-84
2021/03/03 11:46:35;;;;;;;9.13;4.87;;;;;;;16.04;31.37;97736.09;1792175;79;21135;-84
2021/03/03 11:49:03;;;;;;;8.25;4.45;;;;;;;15.87;31.63;97725.07;1827914;77;21141;-84